createdAt,value
2023-02-11T00:02:30.359Z,25.15
2023-02-11T00:05:17.166Z,24.80
2023-02-11T00:08:03.999Z,24.67
2023-02-11T00:10:58.246Z,24.67
2023-02-11T00:13:45.689Z,25.40
2023-02-11T00:16:32.926Z,24.00
2023-02-11T00:19:20.366Z,24.52
2023-02-11T00:22:07.772Z,25.08
2023-02-11T00:24:54.843Z,25.38
2023-02-11T00:27:41.661Z,25.83
2023-02-11T00:30:28.514Z,25.40
2023-02-11T00:33:15.290Z,24.27
2023-02-11T00:36:09.518Z,24.08
2023-02-11T00:38:58.017Z,25.92
2023-02-11T00:41:44.801Z,25.25
2023-02-11T00:44:31.605Z,25.10
2023-02-11T00:47:18.383Z,24.42
2023-02-11T00:50:06.198Z,24.13
2023-02-11T00:52:52.936Z,24.55
2023-02-11T00:55:39.727Z,24.95
2023-02-11T00:58:27.040Z,25.42
2023-02-11T01:01:13.860Z,24.38
2023-02-11T01:04:00.757Z,23.83
2023-02-11T01:06:47.774Z,23.85
2023-02-11T01:09:34.567Z,23.90
2023-02-11T01:12:21.457Z,24.30
2023-02-11T01:15:09.324Z,23.27
2023-02-11T01:17:56.121Z,24.75
2023-02-11T01:20:43.003Z,23.83
2023-02-11T01:23:30.948Z,24.90
2023-02-11T01:26:17.754Z,24.20
2023-02-11T01:29:04.656Z,24.98
2023-02-11T01:31:52.376Z,23.23
2023-02-11T01:34:39.221Z,24.98
2023-02-11T01:37:26.198Z,25.45
2023-02-11T01:40:16.187Z,25.55
2023-02-11T01:43:02.968Z,25.10
2023-02-11T01:45:58.774Z,25.27
2023-02-11T01:48:48.916Z,23.35
2023-02-11T01:51:44.660Z,24.67
2023-02-11T01:54:55.761Z,24.02
2023-02-11T01:57:46.096Z,24.60
2023-02-11T02:00:37.215Z,24.70
2023-02-11T02:03:24.627Z,25.58
2023-02-11T02:06:27.188Z,24.83
2023-02-11T02:09:21.608Z,24.10
2023-02-11T02:12:08.395Z,25.13
2023-02-11T02:15:31.617Z,24.52
2023-02-11T02:18:55.791Z,25.17
2023-02-11T02:21:51.097Z,24.88
2023-02-11T02:24:44.746Z,24.48
2023-02-11T02:27:50.065Z,23.75
2023-02-11T02:30:53.627Z,24.00
2023-02-11T02:34:09.634Z,24.10
2023-02-11T02:37:03.499Z,25.50
2023-02-11T02:39:50.523Z,24.38
2023-02-11T02:42:38.823Z,23.65
2023-02-11T02:45:25.599Z,25.88
2023-02-11T02:48:29.078Z,23.77
2023-02-11T02:51:44.141Z,23.55
2023-02-11T02:54:52.077Z,24.20
2023-02-11T02:58:14.927Z,22.95
2023-02-11T03:01:28.773Z,23.73
2023-02-11T03:04:39.840Z,23.88
2023-02-11T03:07:48.767Z,23.33
2023-02-11T03:10:42.404Z,23.17
2023-02-11T03:13:34.578Z,22.95
2023-02-11T03:16:26.101Z,23.98
2023-02-11T03:19:16.857Z,23.98
2023-02-11T03:22:06.511Z,24.52
2023-02-11T03:24:53.749Z,24.02
2023-02-11T03:28:11.261Z,25.00
2023-02-11T03:31:10.208Z,24.15
2023-02-11T03:34:16.773Z,23.58
2023-02-11T03:37:08.403Z,21.63
2023-02-11T03:40:00.148Z,24.35
2023-02-11T03:42:53.860Z,23.10
2023-02-11T03:45:40.947Z,23.63
2023-02-11T03:48:37.975Z,23.27
2023-02-11T03:51:25.554Z,24.08
2023-02-11T03:54:15.317Z,24.20
2023-02-11T03:57:02.732Z,24.08
2023-02-11T03:59:54.050Z,22.65
2023-02-11T04:02:41.390Z,22.45
2023-02-11T04:05:28.260Z,22.55
2023-02-11T04:08:15.185Z,24.33
2023-02-11T04:11:02.066Z,23.88
2023-02-11T04:13:48.836Z,22.90
2023-02-11T04:16:35.642Z,22.58
2023-02-11T04:19:22.432Z,22.65
2023-02-11T04:22:09.258Z,22.33
2023-02-11T04:24:56.116Z,22.02
2023-02-11T04:27:42.896Z,22.33
2023-02-11T04:30:29.683Z,22.33
2023-02-11T04:33:16.761Z,23.77
2023-02-11T04:36:03.790Z,22.90
2023-02-11T04:38:50.565Z,22.48
2023-02-11T04:41:37.343Z,22.50
2023-02-11T04:44:24.119Z,22.10
2023-02-11T04:47:12.723Z,23.15
2023-02-11T04:49:59.572Z,23.35
2023-02-11T04:52:46.458Z,22.48
2023-02-11T04:55:33.225Z,21.58
2023-02-11T04:58:20.363Z,21.13
2023-02-11T05:01:08.211Z,21.33
2023-02-11T05:03:55.028Z,21.80
2023-02-11T05:06:41.824Z,23.02
2023-02-11T05:09:28.875Z,21.85
2023-02-11T05:12:18.040Z,22.55
2023-02-11T05:15:07.706Z,24.35
2023-02-11T05:17:54.619Z,21.88
2023-02-11T05:20:42.515Z,22.55
2023-02-11T05:23:29.268Z,20.13
2023-02-11T05:26:16.152Z,22.42
2023-02-11T05:29:03.007Z,20.17
2023-02-11T05:31:49.750Z,21.33
2023-02-11T05:34:36.891Z,21.25
2023-02-11T05:37:23.880Z,21.88
2023-02-11T05:40:11.556Z,21.90
2023-02-11T05:42:58.493Z,21.88
2023-02-11T05:45:58.896Z,22.38
2023-02-11T05:48:45.691Z,22.65
2023-02-11T05:51:36.893Z,22.80
2023-02-11T05:54:23.706Z,21.35
2023-02-11T05:57:10.482Z,21.65
2023-02-11T05:59:57.268Z,22.08
2023-02-11T06:02:44.191Z,21.70
2023-02-11T06:05:31.411Z,22.83
2023-02-11T06:08:18.485Z,23.42
2023-02-11T06:11:05.308Z,21.75
2023-02-11T06:13:52.073Z,21.50
2023-02-11T06:16:38.932Z,22.10
2023-02-11T06:19:30.999Z,22.05
2023-02-11T06:22:17.818Z,22.35
2023-02-11T06:25:05.316Z,21.48
2023-02-11T06:27:52.094Z,21.60
2023-02-11T06:30:38.889Z,21.60
2023-02-11T06:33:25.651Z,22.30
2023-02-11T06:36:18.480Z,20.65
2023-02-11T06:39:05.452Z,22.27
2023-02-11T06:41:52.248Z,20.95
2023-02-11T06:44:39.097Z,21.88
2023-02-11T06:47:25.905Z,22.13
2023-02-11T06:50:14.255Z,21.13
2023-02-11T06:53:01.542Z,20.40
2023-02-11T06:55:48.598Z,20.42
2023-02-11T06:58:35.523Z,22.55
2023-02-11T07:01:23.383Z,20.92
2023-02-11T07:04:10.688Z,20.70
2023-02-11T07:06:57.537Z,21.20
2023-02-11T07:09:44.426Z,19.85
2023-02-11T07:12:31.557Z,20.92
2023-02-11T07:15:18.445Z,21.77
2023-02-11T07:18:05.251Z,21.13
2023-02-11T07:20:52.091Z,20.58
2023-02-11T07:23:40.716Z,21.50
2023-02-11T07:26:28.949Z,21.73
2023-02-11T07:29:15.750Z,22.05
2023-02-11T07:32:02.600Z,21.90
2023-02-11T07:34:49.510Z,23.80
2023-02-11T07:37:36.484Z,22.10
2023-02-11T07:40:23.249Z,23.23
2023-02-11T07:43:10.014Z,21.05
2023-02-11T07:45:56.777Z,21.50
2023-02-11T07:48:43.676Z,20.83
2023-02-11T07:51:31.263Z,20.35
2023-02-11T07:54:18.020Z,21.50
2023-02-11T07:57:08.371Z,19.77
2023-02-11T08:00:04.216Z,20.88
2023-02-11T08:02:50.938Z,20.33
2023-02-11T08:05:38.618Z,19.83
2023-02-11T08:08:28.571Z,18.95
2023-02-11T08:11:18.605Z,19.58
2023-02-11T08:14:05.398Z,20.80
2023-02-11T08:16:52.200Z,19.98
2023-02-11T08:19:39.213Z,19.52
2023-02-11T08:22:26.032Z,18.45
2023-02-11T08:25:15.127Z,18.42
2023-02-11T08:28:01.971Z,16.90
2023-02-11T08:30:49.022Z,18.27
2023-02-11T08:33:40.596Z,16.58
2023-02-11T08:36:32.701Z,17.23
2023-02-11T08:39:23.129Z,16.23
2023-02-11T08:42:10.078Z,16.05
2023-02-11T08:44:59.455Z,14.60
2023-02-11T08:50:32.857Z,15.00
2023-02-11T08:53:19.675Z,14.95
2023-02-11T08:56:06.932Z,15.02
2023-02-11T08:58:57.027Z,15.20
2023-02-11T09:01:44.362Z,14.73
2023-02-11T09:04:31.359Z,15.60
2023-02-11T09:07:18.178Z,16.55
2023-02-11T09:10:06.306Z,15.10
2023-02-11T09:12:53.119Z,15.20
2023-02-11T09:15:39.946Z,14.57
2023-02-11T09:18:26.986Z,15.98
2023-02-11T09:21:20.338Z,14.50
2023-02-11T09:24:07.260Z,14.88
2023-02-11T09:26:58.532Z,16.17
2023-02-11T09:29:48.592Z,15.32
2023-02-11T09:32:35.838Z,15.10
2023-02-11T09:35:22.634Z,14.98
2023-02-11T09:38:09.673Z,14.27
2023-02-11T09:40:56.434Z,13.77
2023-02-11T09:43:46.560Z,14.60
2023-02-11T09:46:44.517Z,14.20
2023-02-11T09:49:43.689Z,15.07
2023-02-11T09:52:59.323Z,14.88
2023-02-11T09:55:48.418Z,14.30
2023-02-11T09:58:36.860Z,14.68
2023-02-11T10:01:57.006Z,14.60
2023-02-11T10:05:09.530Z,13.68
2023-02-11T10:08:16.571Z,15.30
2023-02-11T10:11:22.637Z,14.70
2023-02-11T10:14:47.124Z,15.70
2023-02-11T10:17:55.435Z,14.60
2023-02-11T10:20:50.087Z,15.30
2023-02-11T10:23:40.873Z,15.07
2023-02-11T10:26:30.915Z,14.25
2023-02-11T10:29:40.745Z,15.25
2023-02-11T10:32:30.247Z,14.00
2023-02-11T10:35:23.966Z,15.40
2023-02-11T10:38:11.413Z,14.68
2023-02-11T10:40:58.173Z,14.38
2023-02-11T10:43:48.206Z,14.65
2023-02-11T10:46:40.179Z,15.55
2023-02-11T10:49:38.603Z,16.83
2023-02-11T10:52:28.420Z,16.57
2023-02-11T10:55:18.074Z,15.85
2023-02-11T10:58:04.901Z,16.38
2023-02-11T11:00:53.887Z,18.83
2023-02-11T11:03:47.815Z,17.55
2023-02-11T11:06:35.237Z,15.30
2023-02-11T11:09:28.971Z,16.60
2023-02-11T11:12:26.140Z,17.10
2023-02-11T11:15:18.160Z,15.07
2023-02-11T11:18:31.478Z,15.75
2023-02-11T11:21:27.989Z,15.75
2023-02-11T11:24:20.867Z,15.52
2023-02-11T11:27:15.942Z,15.88
2023-02-11T11:30:03.353Z,16.15
2023-02-11T11:32:50.154Z,15.23
2023-02-11T11:35:37.003Z,15.80
2023-02-11T11:38:24.613Z,14.73
2023-02-11T11:41:21.522Z,16.75
2023-02-11T11:44:28.116Z,14.68
2023-02-11T11:47:20.688Z,14.95
2023-02-11T11:50:22.530Z,14.63
2023-02-11T11:53:18.723Z,15.38
2023-02-11T11:56:09.540Z,14.13
2023-02-11T11:59:03.769Z,15.02
2023-02-11T12:02:21.521Z,15.52
2023-02-11T12:05:59.209Z,14.43
2023-02-11T12:09:08.799Z,13.95
2023-02-11T12:11:58.931Z,14.13
2023-02-11T12:14:57.813Z,13.27
2023-02-11T12:18:22.006Z,13.40
2023-02-11T12:21:20.623Z,13.38
2023-02-11T12:24:45.814Z,13.55
2023-02-11T12:27:45.177Z,14.15
2023-02-11T12:30:51.239Z,13.23
2023-02-11T12:33:44.762Z,13.43
2023-02-11T12:37:09.250Z,14.93
2023-02-11T12:40:14.066Z,16.10
2023-02-11T12:43:16.565Z,15.02
2023-02-11T12:46:39.476Z,15.75
2023-02-11T12:49:58.713Z,15.38
2023-02-11T12:53:25.708Z,15.57
2023-02-11T12:56:50.937Z,14.65
2023-02-11T13:00:42.391Z,15.43
2023-02-11T13:04:06.354Z,14.73
2023-02-11T13:07:57.299Z,14.82
2023-02-11T13:14:15.588Z,14.30
2023-02-11T13:17:09.030Z,14.20
2023-02-11T13:20:06.549Z,13.73
2023-02-11T13:23:04.666Z,14.07
2023-02-11T13:26:06.100Z,13.95
2023-02-11T13:29:21.797Z,13.38
2023-02-11T13:32:20.426Z,13.68
2023-02-11T13:35:30.922Z,13.75
2023-02-11T13:38:24.115Z,14.23
2023-02-11T13:41:24.776Z,14.18
2023-02-11T13:44:11.645Z,14.13
2023-02-11T13:47:10.296Z,14.55
2023-02-11T13:50:04.043Z,14.02
2023-02-11T13:53:03.356Z,14.55
2023-02-11T13:58:51.413Z,13.48
2023-02-11T14:02:07.432Z,13.13
2023-02-11T14:05:22.370Z,13.95
2023-02-11T14:08:47.366Z,14.23
2023-02-11T14:22:40.661Z,13.68
2023-02-11T14:25:32.305Z,13.45
2023-02-11T14:28:24.619Z,14.20
2023-02-11T14:31:21.423Z,15.63
2023-02-11T14:34:24.799Z,16.15
2023-02-11T14:37:22.572Z,14.60
2023-02-11T14:40:29.809Z,15.45
2023-02-11T14:43:20.183Z,14.68
2023-02-11T14:46:07.081Z,15.05
2023-02-11T14:48:58.390Z,15.45
2023-02-11T14:51:45.162Z,15.60
2023-02-11T14:54:33.304Z,15.52
2023-02-11T14:57:22.387Z,16.55
2023-02-11T15:00:17.658Z,14.98
2023-02-11T15:03:07.264Z,15.85
2023-02-11T15:05:56.921Z,17.08
2023-02-11T15:08:47.298Z,15.43
2023-02-11T15:11:39.713Z,15.25
2023-02-11T15:14:32.369Z,14.68
2023-02-11T15:17:24.686Z,14.85
2023-02-11T15:20:24.666Z,14.23
2023-02-11T15:23:20.549Z,14.77
2023-02-11T15:26:15.217Z,15.45
2023-02-11T15:29:01.983Z,14.63
2023-02-11T15:32:03.493Z,16.63
2023-02-11T15:34:52.610Z,14.82
2023-02-11T15:37:39.895Z,16.80
2023-02-11T15:40:32.972Z,15.77
2023-02-11T15:43:19.761Z,18.55
2023-02-11T15:46:06.797Z,16.23
2023-02-11T15:48:54.826Z,17.20
2023-02-11T15:51:45.462Z,18.95
2023-02-11T15:54:32.497Z,18.13
2023-02-11T15:57:20.222Z,18.63
2023-02-11T16:00:08.119Z,18.33
2023-02-11T16:02:54.933Z,18.65
2023-02-11T16:05:41.750Z,18.17
2023-02-11T16:08:29.901Z,18.52
2023-02-11T16:11:31.097Z,17.85
2023-02-11T16:14:23.948Z,16.83
2023-02-11T16:17:13.230Z,17.60
2023-02-11T16:22:47.143Z,17.30
2023-02-11T16:25:37.475Z,18.10
2023-02-11T16:28:25.729Z,17.30
2023-02-11T16:31:13.269Z,18.17
2023-02-11T16:34:00.112Z,17.92
2023-02-11T16:36:47.724Z,17.73
2023-02-11T16:39:34.618Z,17.08
2023-02-11T16:42:23.410Z,17.60
2023-02-11T16:45:18.767Z,16.75
2023-02-11T16:48:17.103Z,16.90
2023-02-11T16:51:09.356Z,16.97
2023-02-11T16:53:56.184Z,16.25
2023-02-11T16:56:44.063Z,17.35
2023-02-11T16:59:30.880Z,16.55
2023-02-11T17:02:24.297Z,17.88
2023-02-11T17:05:22.934Z,17.98
2023-02-11T17:08:13.080Z,17.02
2023-02-11T17:11:05.312Z,17.80
2023-02-11T17:13:52.108Z,16.20
2023-02-11T17:16:39.168Z,14.57
2023-02-11T17:19:31.162Z,14.38
2023-02-11T17:22:18.671Z,14.13
2023-02-11T17:25:06.590Z,13.43
2023-02-11T17:27:53.735Z,13.60
2023-02-11T17:30:44.722Z,13.90
2023-02-11T17:33:31.794Z,12.40
2023-02-11T17:36:19.496Z,13.13
2023-02-11T17:39:08.259Z,13.00
2023-02-11T17:41:55.202Z,12.93
2023-02-11T17:44:46.431Z,13.30
2023-02-11T17:47:36.390Z,12.70
2023-02-11T17:50:23.210Z,12.10
2023-02-11T17:53:12.416Z,12.77
2023-02-11T17:56:11.247Z,11.85
2023-02-11T17:59:02.492Z,12.27
2023-02-11T18:01:49.282Z,12.35
2023-02-11T18:04:36.520Z,11.88
2023-02-11T18:07:23.428Z,11.68
2023-02-11T18:10:10.719Z,11.18
2023-02-11T18:12:57.464Z,11.80
2023-02-11T18:15:44.349Z,11.90
2023-02-11T18:18:31.262Z,11.10
2023-02-11T18:21:19.888Z,11.15
2023-02-11T18:24:07.308Z,10.80
2023-02-11T18:26:54.147Z,11.10
2023-02-11T18:29:40.880Z,11.45
2023-02-11T18:32:30.791Z,11.27
2023-02-11T18:35:17.592Z,10.43
2023-02-11T18:38:04.387Z,11.00
2023-02-11T18:40:52.335Z,9.88
2023-02-11T18:43:40.005Z,10.57
2023-02-11T18:46:26.829Z,10.68
2023-02-11T18:49:14.543Z,10.65
2023-02-11T18:52:01.298Z,10.13
2023-02-11T18:54:51.332Z,10.85
2023-02-11T18:57:38.085Z,10.65
2023-02-11T19:00:26.984Z,10.70
2023-02-11T19:03:14.088Z,10.63
2023-02-11T19:06:00.853Z,10.88
2023-02-11T19:08:47.939Z,10.82
2023-02-11T19:11:54.309Z,11.02
2023-02-11T19:14:41.409Z,9.50
2023-02-11T19:17:28.154Z,10.00
2023-02-11T19:20:15.012Z,10.52
2023-02-11T19:23:01.823Z,10.23
2023-02-11T19:25:48.817Z,10.52
2023-02-11T19:28:37.064Z,10.88
2023-02-11T19:31:24.109Z,10.60
2023-02-11T19:34:14.064Z,9.70
2023-02-11T19:37:01.602Z,10.38
2023-02-11T19:39:51.552Z,9.82
2023-02-11T19:42:38.733Z,10.50
2023-02-11T19:45:26.862Z,9.90
2023-02-11T19:48:13.586Z,9.85
2023-02-11T19:51:07.936Z,10.93
2023-02-11T19:53:54.718Z,10.20
2023-02-11T19:56:41.614Z,10.02
2023-02-11T19:59:28.406Z,10.13
2023-02-11T20:02:18.901Z,10.10
2023-02-11T20:05:06.338Z,9.65
2023-02-11T20:07:53.098Z,9.60
2023-02-11T20:10:40.376Z,9.57
2023-02-11T20:13:27.939Z,10.70
2023-02-11T20:16:17.226Z,9.95
2023-02-11T20:21:55.629Z,9.38
2023-02-11T20:24:50.503Z,9.68
2023-02-11T20:27:37.720Z,9.93
2023-02-11T20:30:24.842Z,10.77
2023-02-11T20:33:11.642Z,10.07
2023-02-11T20:36:04.481Z,9.95
2023-02-11T20:38:51.613Z,10.13
2023-02-11T20:41:39.970Z,10.52
2023-02-11T20:44:27.358Z,11.05
2023-02-11T20:47:14.274Z,11.25
2023-02-11T20:50:01.168Z,10.75
2023-02-11T20:52:48.536Z,10.45
2023-02-11T20:55:37.897Z,10.35
2023-02-11T21:01:20.722Z,10.82
2023-02-11T21:04:12.994Z,10.68
2023-02-11T21:07:01.616Z,10.77
2023-02-11T21:09:49.324Z,11.20
2023-02-11T21:12:38.878Z,11.20
2023-02-11T21:15:25.714Z,11.38
2023-02-11T21:18:13.271Z,11.27
2023-02-11T21:21:00.175Z,10.50
2023-02-11T21:23:47.621Z,10.35
2023-02-11T21:26:35.533Z,11.15
2023-02-11T21:29:22.283Z,11.00
2023-02-11T21:32:09.081Z,11.65
2023-02-11T21:34:55.976Z,11.15
2023-02-11T21:37:42.742Z,11.52
2023-02-11T21:40:38.688Z,11.00
2023-02-11T21:43:25.541Z,12.13
2023-02-11T21:46:14.477Z,11.88
2023-02-11T21:49:01.506Z,11.05
2023-02-11T21:51:48.390Z,11.52
2023-02-11T21:54:35.178Z,12.23
2023-02-11T21:57:21.922Z,11.68
2023-02-11T22:00:09.832Z,11.18
2023-02-11T22:02:56.718Z,11.98
2023-02-11T22:05:46.571Z,12.27
2023-02-11T22:08:34.805Z,12.48
2023-02-11T22:11:21.641Z,11.80
2023-02-11T22:14:08.546Z,11.43
2023-02-11T22:16:55.375Z,11.43
2023-02-11T22:19:42.205Z,11.55
2023-02-11T22:22:29.347Z,11.50
2023-02-11T22:25:19.355Z,11.45
2023-02-11T22:28:06.265Z,11.43
2023-02-11T22:30:55.289Z,11.05
2023-02-11T22:33:42.722Z,10.93
2023-02-11T22:36:31.794Z,11.77
2023-02-11T22:39:21.093Z,11.75
2023-02-11T22:44:54.750Z,10.65
2023-02-11T22:47:41.609Z,11.30
2023-02-11T22:50:28.408Z,11.73
2023-02-11T22:53:15.171Z,11.38
2023-02-11T22:56:05.632Z,11.55
2023-02-11T22:58:53.652Z,11.07
2023-02-11T23:01:40.674Z,11.15
2023-02-11T23:04:27.518Z,11.50
2023-02-11T23:07:22.057Z,11.40
2023-02-11T23:10:09.901Z,10.73
2023-02-11T23:12:56.696Z,11.40
2023-02-11T23:15:45.174Z,11.85
2023-02-11T23:18:32.175Z,10.50
2023-02-11T23:21:21.890Z,11.13
2023-02-11T23:24:12.260Z,11.27
2023-02-11T23:26:59.109Z,11.27
2023-02-11T23:29:45.879Z,11.60
2023-02-11T23:32:32.813Z,10.57
2023-02-11T23:35:23.159Z,10.98
2023-02-11T23:38:13.496Z,10.85
2023-02-11T23:41:07.444Z,10.48
2023-02-11T23:43:56.304Z,10.73
2023-02-11T23:47:06.299Z,10.48
2023-02-11T23:49:54.228Z,11.48
2023-02-11T23:52:44.119Z,10.50
2023-02-11T23:55:31.007Z,11.05
2023-02-11T23:58:17.957Z,11.43
